Time;durP1;ratioP1;P1;durP2;ratioP2;P2;SDS_P1;SDS_P2;PMS_P1;PMS_P2;Temp;Humidity;BMP_temperature;BMP_pressure;BME280_temperature;BME280_humidity;BME280_pressure;Samples;Min_cycle;Max_cycle;Signal;HPM_P1;HPM_P2
2023/08/02 00:01:12;;;;;;;3.13;1.23;;;17.90;99.90;;;;;;4976990;28;20137;-85
2023/08/02 00:03:37;;;;;;;3.38;1.23;;;17.90;99.90;;;;;;4998431;28;20045;-84
2023/08/02 00:06:03;;;;;;;3.08;1.25;;;17.90;99.90;;;;;;4989889;28;20042;-84
2023/08/02 00:08:32;;;;;;;1.80;1.00;;;17.90;99.90;;;;;;4974311;28;20432;-84
2023/08/02 00:10:59;;;;;;;2.95;0.98;;;17.90;99.90;;;;;;4989384;28;20442;-84
2023/08/02 00:13:24;;;;;;;4.68;1.48;;;17.90;99.90;;;;;;4992543;28;20403;-84
2023/08/02 00:15:52;;;;;;;2.45;1.15;;;17.90;99.90;;;;;;4975536;28;20037;-85
2023/08/02 00:18:18;;;;;;;1.25;0.98;;;17.80;99.90;;;;;;4975562;28;20054;-84
2023/08/02 00:20:44;;;;;;;3.45;1.40;;;17.80;99.90;;;;;;4977777;28;20034;-85
2023/08/02 00:23:10;;;;;;;2.35;1.38;;;17.80;99.90;;;;;;4976841;28;20104;-85
2023/08/02 00:25:36;;;;;;;4.03;1.70;;;17.80;99.90;;;;;;4990851;28;20038;-85
2023/08/02 00:28:01;;;;;;;2.72;1.33;;;17.70;99.90;;;;;;4985697;28;20114;-84
2023/08/02 00:30:30;;;;;;;3.70;1.00;;;17.70;99.90;;;;;;4987574;28;20121;-84
2023/08/02 00:32:56;;;;;;;1.50;1.13;;;17.60;99.90;;;;;;4997345;28;20101;-84
2023/08/02 00:35:21;;;;;;;2.65;0.90;;;17.60;99.90;;;;;;4990951;28;20498;-84
2023/08/02 00:37:47;;;;;;;1.92;0.80;;;17.60;99.90;;;;;;4990424;28;20026;-84
2023/08/02 00:40:13;;;;;;;4.07;1.33;;;17.60;99.90;;;;;;4993288;28;20400;-85
2023/08/02 00:42:39;;;;;;;3.97;1.20;;;17.60;99.90;;;;;;4991516;28;20062;-85
2023/08/02 00:45:05;;;;;;;3.90;1.33;;;17.60;99.90;;;;;;4977508;28;20077;-85
2023/08/02 00:47:32;;;;;;;4.28;1.20;;;17.50;99.90;;;;;;4997424;28;20102;-85
2023/08/02 00:49:58;;;;;;;3.35;1.42;;;17.50;99.90;;;;;;4999113;28;20038;-85
2023/08/02 00:52:24;;;;;;;4.40;1.23;;;17.50;99.90;;;;;;4980010;28;20498;-85
2023/08/02 00:54:50;;;;;;;3.40;0.90;;;17.40;99.90;;;;;;4978951;28;20109;-85
2023/08/02 00:57:16;;;;;;;2.88;1.30;;;17.40;99.90;;;;;;4999300;28;20029;-85
2023/08/02 00:59:42;;;;;;;3.85;1.25;;;17.40;99.90;;;;;;4981482;28;20097;-85
2023/08/02 01:02:08;;;;;;;4.93;1.42;;;17.40;99.90;;;;;;4976024;28;20076;-85
2023/08/02 01:04:35;;;;;;;3.65;1.20;;;17.40;99.90;;;;;;4979739;28;20049;-85
2023/08/02 01:07:30;;;;;;;3.22;1.67;;;17.30;99.90;;;;;;4981461;28;20052;-85
2023/08/02 01:10:09;;;;;;;2.50;1.17;;;17.30;99.90;;;;;;4978204;28;20026;-85
2023/08/02 01:12:37;;;;;;;2.65;1.35;;;17.30;99.90;;;;;;4988952;28;20475;-85
2023/08/02 01:15:05;;;;;;;4.03;1.20;;;17.30;99.90;;;;;;4993298;28;20040;-85
2023/08/02 01:17:32;;;;;;;1.30;0.90;;;17.30;99.90;;;;;;4977199;28;20113;-85
2023/08/02 01:20:03;;;;;;;4.00;1.25;;;17.20;99.90;;;;;;4979855;28;20034;-85
2023/08/02 01:22:29;;;;;;;3.30;1.20;;;17.20;99.90;;;;;;4992460;28;20084;-85
2023/08/02 01:24:56;;;;;;;3.70;1.67;;;17.20;99.90;;;;;;4997454;28;20137;-85
2023/08/02 01:27:25;;;;;;;3.83;1.45;;;17.20;99.90;;;;;;4979427;28;20026;-85
2023/08/02 01:29:52;;;;;;;2.97;1.10;;;17.20;99.90;;;;;;4996064;28;20026;-85
2023/08/02 01:32:21;;;;;;;3.47;1.50;;;17.20;99.90;;;;;;4997116;28;20550;-85
2023/08/02 01:34:48;;;;;;;2.47;1.10;;;17.20;99.90;;;;;;4984601;28;20049;-84
2023/08/02 01:37:14;;;;;;;4.18;1.42;;;17.20;99.90;;;;;;4979444;28;20030;-85
2023/08/02 01:39:40;;;;;;;5.18;1.50;;;17.10;99.90;;;;;;4998250;28;20054;-84
2023/08/02 01:42:05;;;;;;;4.43;1.17;;;17.10;99.90;;;;;;4994594;28;20033;-85
2023/08/02 01:44:31;;;;;;;2.88;1.33;;;17.10;99.90;;;;;;4996119;28;20034;-85
2023/08/02 01:46:57;;;;;;;3.50;1.50;;;17.10;99.90;;;;;;4977065;28;20168;-85
2023/08/02 01:49:22;;;;;;;4.07;1.40;;;17.10;99.90;;;;;;4977522;28;20080;-84
2023/08/02 01:51:48;;;;;;;2.50;1.15;;;17.10;99.90;;;;;;4994017;28;20031;-85
2023/08/02 01:54:13;;;;;;;4.75;1.88;;;17.00;99.90;;;;;;4975025;28;20034;-85
2023/08/02 01:56:39;;;;;;;5.28;1.13;;;17.00;99.90;;;;;;4976094;28;20467;-84
2023/08/02 01:59:05;;;;;;;4.25;1.20;;;17.00;99.90;;;;;;5000778;28;20517;-85
2023/08/02 02:01:30;;;;;;;3.83;1.30;;;16.90;99.90;;;;;;4978783;28;20042;-85
2023/08/02 02:03:56;;;;;;;3.13;1.10;;;16.90;99.90;;;;;;4991071;28;20033;-85
2023/08/02 02:06:21;;;;;;;3.08;1.20;;;16.90;99.90;;;;;;4990080;28;20069;-85
2023/08/02 02:08:48;;;;;;;3.63;1.27;;;16.80;99.90;;;;;;4972709;28;20395;-85
2023/08/02 02:11:14;;;;;;;4.13;1.63;;;16.80;99.90;;;;;;4986014;28;20027;-86
2023/08/02 02:13:42;;;;;;;2.88;1.58;;;16.80;99.90;;;;;;4979157;28;20033;-85
2023/08/02 02:16:09;;;;;;;2.83;1.30;;;16.80;99.90;;;;;;4982886;28;20046;-84
2023/08/02 02:18:35;;;;;;;2.45;1.02;;;16.80;99.90;;;;;;5000838;28;20095;-85
2023/08/02 02:21:00;;;;;;;3.72;1.35;;;16.70;99.90;;;;;;4993133;28;20053;-84
2023/08/02 02:23:26;;;;;;;3.17;1.17;;;16.80;99.90;;;;;;5000622;28;20018;-84
2023/08/02 02:25:51;;;;;;;3.10;1.38;;;16.80;99.90;;;;;;4992223;28;20136;-85
2023/08/02 02:28:19;;;;;;;1.98;1.10;;;16.70;99.90;;;;;;4993376;28;20027;-85
2023/08/02 02:30:44;;;;;;;3.42;1.02;;;16.70;99.90;;;;;;5036295;23;20045;-72
2023/08/02 02:33:10;;;;;;;2.00;1.10;;;16.70;99.90;;;;;;5004571;28;20030;-73
2023/08/02 02:35:36;;;;;;;1.98;1.10;;;16.70;99.90;;;;;;5008482;28;20030;-72
2023/08/02 02:38:01;;;;;;;2.38;1.08;;;16.60;99.90;;;;;;5012106;28;20039;-72
2023/08/02 02:40:27;;;;;;;4.60;1.17;;;16.60;99.90;;;;;;5010277;28;20033;-73
2023/08/02 02:42:52;;;;;;;5.35;1.20;;;16.60;99.90;;;;;;5006123;28;20516;-72
2023/08/02 02:45:18;;;;;;;2.03;1.15;;;16.60;99.90;;;;;;4993646;28;20036;-70
2023/08/02 02:47:44;;;;;;;2.75;1.10;;;16.50;99.90;;;;;;5007708;28;20037;-70
2023/08/02 02:50:09;;;;;;;3.10;1.40;;;16.50;99.90;;;;;;4994324;28;20033;-71
2023/08/02 02:52:35;;;;;;;1.90;1.20;;;16.50;99.90;;;;;;5016717;28;20021;-70
2023/08/02 02:55:01;;;;;;;4.57;1.30;;;16.50;99.90;;;;;;5016793;28;20361;-71
2023/08/02 02:57:27;;;;;;;3.50;1.42;;;16.50;99.90;;;;;;5014041;28;20021;-70
2023/08/02 02:59:52;;;;;;;2.60;1.25;;;16.50;99.90;;;;;;5011767;28;20057;-72
2023/08/02 03:02:18;;;;;;;3.72;1.42;;;16.60;99.90;;;;;;4995657;28;20025;-71
2023/08/02 03:04:43;;;;;;;2.40;1.10;;;16.60;99.90;;;;;;5014968;28;20026;-71
2023/08/02 03:07:09;;;;;;;2.22;1.05;;;16.60;99.90;;;;;;5012423;28;20045;-71
2023/08/02 03:09:35;;;;;;;4.30;1.45;;;16.70;99.90;;;;;;5006022;28;20079;-71
2023/08/02 03:12:00;;;;;;;3.03;1.10;;;16.70;99.90;;;;;;5012404;28;20026;-71
2023/08/02 03:14:27;;;;;;;2.28;0.90;;;16.80;99.90;;;;;;5010679;28;20388;-70
2023/08/02 03:16:53;;;;;;;5.30;1.80;;;16.70;99.90;;;;;;5007392;28;20029;-71
2023/08/02 03:19:18;;;;;;;4.22;1.40;;;16.80;99.90;;;;;;5014417;28;20030;-71
2023/08/02 03:21:44;;;;;;;6.95;1.00;;;16.80;99.90;;;;;;5012341;28;20033;-70
2023/08/02 03:24:10;;;;;;;2.65;1.48;;;16.80;99.90;;;;;;5009901;28;20033;-71
2023/08/02 03:26:35;;;;;;;4.32;1.30;;;16.80;99.90;;;;;;5011741;28;20030;-70
2023/08/02 03:29:01;;;;;;;2.25;1.23;;;16.80;99.90;;;;;;5007395;28;20029;-71
2023/08/02 03:31:26;;;;;;;7.97;1.58;;;16.90;99.90;;;;;;4991573;28;20400;-71
2023/08/02 03:33:52;;;;;;;2.63;1.25;;;16.90;99.90;;;;;;4992909;28;20032;-70
2023/08/02 03:36:18;;;;;;;2.40;1.25;;;16.90;99.90;;;;;;4992921;28;20054;-72
2023/08/02 03:38:43;;;;;;;4.78;1.80;;;16.90;99.90;;;;;;5012710;28;20063;-71
2023/08/02 03:41:09;;;;;;;2.80;1.13;;;16.80;99.90;;;;;;5012740;28;20126;-72
2023/08/02 03:43:35;;;;;;;4.10;1.40;;;16.90;99.90;;;;;;5007605;28;20029;-70
2023/08/02 03:46:01;;;;;;;2.25;1.23;;;16.90;99.90;;;;;;5015195;28;20022;-72
2023/08/02 03:48:28;;;;;;;3.63;1.17;;;16.90;99.90;;;;;;4994100;28;20034;-74
2023/08/02 03:50:56;;;;;;;3.75;1.35;;;16.90;99.90;;;;;;5011297;28;20028;-72
2023/08/02 03:53:21;;;;;;;2.33;1.33;;;16.80;99.90;;;;;;5010624;28;20113;-71
2023/08/02 03:55:47;;;;;;;2.88;1.55;;;16.90;99.90;;;;;;5014067;28;20539;-72
2023/08/02 03:58:12;;;;;;;2.70;1.30;;;16.90;99.90;;;;;;5010751;28;20528;-72
2023/08/02 04:00:38;;;;;;;2.67;1.65;;;16.90;99.90;;;;;;4992379;28;20018;-71
2023/08/02 04:03:04;;;;;;;3.38;1.42;;;16.90;99.90;;;;;;5009540;28;20026;-71
2023/08/02 04:05:29;;;;;;;5.03;2.00;;;16.90;99.90;;;;;;5016460;28;20024;-72
2023/08/02 04:07:55;;;;;;;4.05;1.60;;;16.90;99.90;;;;;;5010927;28;20637;-72
2023/08/02 04:10:20;;;;;;;3.63;1.50;;;17.00;99.90;;;;;;5000917;28;20080;-72
2023/08/02 04:12:46;;;;;;;4.85;1.63;;;17.00;99.90;;;;;;4993665;28;20022;-71
2023/08/02 04:15:11;;;;;;;3.30;1.33;;;16.90;99.90;;;;;;5011180;28;20041;-72
2023/08/02 04:17:37;;;;;;;2.75;1.60;;;17.00;99.90;;;;;;5004862;28;20032;-71
2023/08/02 04:20:03;;;;;;;3.20;1.60;;;16.90;99.90;;;;;;5013269;28;20087;-71
2023/08/02 04:22:31;;;;;;;3.20;1.67;;;16.90;99.90;;;;;;5016833;28;20054;-71
2023/08/02 04:24:58;;;;;;;4.07;1.63;;;16.90;99.90;;;;;;5023070;28;20117;-71
2023/08/02 04:27:23;;;;;;;4.30;1.70;;;16.90;99.90;;;;;;5005339;28;20022;-70
2023/08/02 04:29:49;;;;;;;2.15;1.38;;;16.90;99.90;;;;;;5015014;28;20037;-69
2023/08/02 04:32:14;;;;;;;4.00;1.63;;;16.90;99.90;;;;;;5017285;28;20030;-68
2023/08/02 04:34:40;;;;;;;3.78;1.90;;;17.00;99.90;;;;;;5012338;28;20488;-70
2023/08/02 04:37:06;;;;;;;5.47;1.75;;;16.90;99.90;;;;;;5015211;28;20543;-70
2023/08/02 04:39:32;;;;;;;4.80;1.98;;;16.90;99.90;;;;;;5015798;28;20047;-70
2023/08/02 04:42:03;;;;;;;5.05;1.90;;;16.80;99.90;;;;;;5012528;28;20117;-68
2023/08/02 04:44:29;;;;;;;3.70;1.90;;;16.80;99.90;;;;;;4994193;28;20018;-70
2023/08/02 04:46:54;;;;;;;4.50;2.17;;;16.70;99.90;;;;;;5008660;28;20500;-70
2023/08/02 04:49:20;;;;;;;4.13;2.33;;;16.60;99.90;;;;;;5011807;28;20072;-70
2023/08/02 04:51:45;;;;;;;6.32;2.20;;;16.60;99.90;;;;;;4989090;28;20042;-69
2023/08/02 04:54:11;;;;;;;3.58;2.10;;;16.60;99.90;;;;;;4992470;28;20027;-70
2023/08/02 04:56:38;;;;;;;4.40;2.95;;;16.50;99.90;;;;;;5013672;28;20026;-70
2023/08/02 04:59:05;;;;;;;5.78;2.78;;;16.40;99.90;;;;;;5015200;28;20515;-70
2023/08/02 05:01:32;;;;;;;6.05;2.92;;;16.40;99.90;;;;;;5013774;28;20073;-70
2023/08/02 05:03:57;;;;;;;5.72;2.67;;;16.40;99.90;;;;;;5022367;28;20034;-72
2023/08/02 05:06:23;;;;;;;6.72;2.65;;;16.50;99.90;;;;;;5015002;28;20033;-71
2023/08/02 05:08:49;;;;;;;5.20;3.35;;;16.50;99.90;;;;;;4997449;28;20455;-71
2023/08/02 05:11:14;;;;;;;8.00;3.92;;;16.40;99.90;;;;;;5012860;28;20031;-70
2023/08/02 05:13:40;;;;;;;5.78;3.30;;;16.40;99.90;;;;;;5013994;28;20045;-69
2023/08/02 05:16:12;;;;;;;7.82;3.65;;;16.40;99.90;;;;;;5010608;28;20494;-69
2023/08/02 05:18:37;;;;;;;7.32;3.47;;;16.40;99.90;;;;;;4998207;28;20127;-69
2023/08/02 05:21:11;;;;;;;9.50;3.75;;;16.30;99.90;;;;;;5003110;28;20160;-69
2023/08/02 05:23:36;;;;;;;;;;;16.30;99.90;;;;;;5009916;28;20036;-72
2023/08/02 05:26:06;;;;;;;7.88;3.78;;;16.30;99.90;;;;;;5014450;28;19906;-73
2023/08/02 05:28:32;;;;;;;7.25;3.55;;;16.30;99.90;;;;;;5027583;28;20135;-73
2023/08/02 05:30:57;;;;;;;5.78;3.97;;;16.30;99.90;;;;;;5033286;28;20036;-73
2023/08/02 05:33:23;;;;;;;9.00;4.72;;;16.30;99.90;;;;;;5033369;28;20396;-71
2023/08/02 05:35:49;;;;;;;6.65;3.88;;;16.20;99.90;;;;;;5033658;28;20178;-72
2023/08/02 05:38:14;;;;;;;7.03;4.30;;;16.20;99.90;;;;;;5033924;28;20083;-72
2023/08/02 05:40:40;;;;;;;7.38;4.55;;;16.20;99.90;;;;;;5034080;28;20021;-72
2023/08/02 05:43:06;;;;;;;12.43;4.90;;;16.20;99.90;;;;;;5015492;28;20096;-72
2023/08/02 05:45:32;;;;;;;7.72;4.78;;;16.10;99.90;;;;;;5013167;28;20033;-71
2023/08/02 05:47:58;;;;;;;10.98;4.93;;;16.10;99.90;;;;;;5020512;28;20025;-70
2023/08/02 05:50:24;;;;;;;8.85;5.38;;;16.10;99.90;;;;;;5028401;28;20030;-71
2023/08/02 05:52:50;;;;;;;11.70;5.78;;;16.10;99.90;;;;;;5017156;28;20551;-71
2023/08/02 05:55:16;;;;;;;11.85;5.10;;;16.10;99.90;;;;;;5017550;28;20095;-72
2023/08/02 05:57:41;;;;;;;8.20;5.68;;;16.00;99.90;;;;;;5019542;28;20032;-72
2023/08/02 06:00:08;;;;;;;9.30;5.72;;;16.10;99.90;;;;;;5008081;28;20404;-72
2023/08/02 06:02:34;;;;;;;8.45;4.55;;;16.00;99.90;;;;;;5012639;28;20509;-72
2023/08/02 06:05:00;;;;;;;9.30;5.50;;;16.00;99.90;;;;;;5013163;28;20107;-72
2023/08/02 06:07:25;;;;;;;9.75;5.88;;;16.00;99.90;;;;;;5012725;28;20026;-71
2023/08/02 06:09:51;;;;;;;9.13;5.50;;;16.10;99.90;;;;;;5023986;28;20025;-71
2023/08/02 06:12:16;;;;;;;11.13;6.13;;;16.10;99.90;;;;;;5011561;28;20142;-71
2023/08/02 06:14:42;;;;;;;10.23;5.20;;;16.10;99.90;;;;;;5011285;28;20030;-71
2023/08/02 06:17:07;;;;;;;8.65;5.03;;;16.10;99.90;;;;;;5017811;28;20069;-71
2023/08/02 06:19:33;;;;;;;7.63;4.90;;;16.10;99.90;;;;;;5014411;28;20022;-73
2023/08/02 06:21:58;;;;;;;6.88;4.72;;;16.10;99.90;;;;;;4994788;28;20061;-72
2023/08/02 06:24:24;;;;;;;7.38;4.43;;;16.10;99.90;;;;;;4999683;28;20116;-73
2023/08/02 06:26:50;;;;;;;9.23;4.63;;;16.20;99.90;;;;;;5012502;28;20146;-72
2023/08/02 06:29:15;;;;;;;9.10;4.72;;;16.20;99.90;;;;;;5003322;28;20555;-71
2023/08/02 06:31:41;;;;;;;7.97;4.65;;;16.20;99.90;;;;;;5017398;28;20092;-72
2023/08/02 06:34:06;;;;;;;8.40;5.40;;;16.30;99.90;;;;;;4986725;28;20680;-72
2023/08/02 06:36:32;;;;;;;7.38;4.90;;;16.30;99.90;;;;;;5005182;28;20033;-71
2023/08/02 06:38:58;;;;;;;8.80;4.82;;;16.40;99.90;;;;;;5009700;28;20117;-70
2023/08/02 06:41:23;;;;;;;6.45;4.55;;;16.50;99.90;;;;;;5011950;28;20088;-70
2023/08/02 06:43:50;;;;;;;8.10;4.95;;;16.60;99.90;;;;;;5008457;28;20037;-71
2023/08/02 06:46:15;;;;;;;9.73;5.18;;;16.70;99.90;;;;;;5006415;28;20029;-71
2023/08/02 06:48:41;;;;;;;9.23;5.10;;;16.70;99.90;;;;;;5010516;28;20560;-71
2023/08/02 06:51:11;;;;;;;9.80;5.63;;;16.70;99.90;;;;;;4999839;28;20346;-70
2023/08/02 06:53:37;;;;;;;8.90;5.72;;;16.80;99.90;;;;;;5012615;28;20492;-70
2023/08/02 06:56:12;;;;;;;7.28;4.93;;;16.80;99.90;;;;;;5014733;28;20029;-70
2023/08/02 06:58:38;;;;;;;7.30;4.80;;;16.90;99.90;;;;;;5010630;28;20491;-69
2023/08/02 07:01:15;;;;;;;7.38;4.70;;;16.90;99.90;;;;;;5019327;28;20073;-70
2023/08/02 07:03:41;;;;;;;8.95;5.13;;;16.80;99.90;;;;;;5015122;28;20026;-70
2023/08/02 07:06:10;;;;;;;7.35;4.78;;;16.80;99.90;;;;;;5014059;28;20037;-71
2023/08/02 07:08:40;;;;;;;10.20;5.43;;;16.80;99.90;;;;;;5018570;28;20044;-71
2023/08/02 07:11:06;;;;;;;7.72;5.00;;;16.80;99.90;;;;;;5013049;28;20100;-70
2023/08/02 07:13:36;;;;;;;7.47;5.25;;;16.90;99.90;;;;;;5019134;28;20025;-72
2023/08/02 07:16:05;;;;;;;7.35;5.22;;;16.90;99.90;;;;;;4999825;28;20025;-70
2023/08/02 07:18:31;;;;;;;10.00;5.47;;;16.90;99.90;;;;;;5018192;28;20092;-70
2023/08/02 07:21:05;;;;;;;8.75;4.75;;;17.00;99.90;;;;;;5010104;28;20594;-71
2023/08/02 07:23:31;;;;;;;9.35;4.88;;;17.10;99.90;;;;;;5009669;28;20424;-73
2023/08/02 07:25:57;;;;;;;6.57;4.72;;;17.10;99.90;;;;;;4994803;28;20516;-72
2023/08/02 07:28:23;;;;;;;7.68;4.78;;;17.10;99.90;;;;;;5008307;28;20052;-73
2023/08/02 07:30:48;;;;;;;9.48;4.88;;;17.20;99.90;;;;;;5011067;28;20034;-72
2023/08/02 07:33:14;;;;;;;6.50;3.90;;;17.20;99.90;;;;;;5011940;28;20022;-72
2023/08/02 07:35:40;;;;;;;7.70;3.75;;;17.30;99.90;;;;;;5012400;28;20026;-72
2023/08/02 07:38:05;;;;;;;5.63;3.70;;;17.20;99.90;;;;;;5017257;28;20022;-72
2023/08/02 07:40:31;;;;;;;10.07;3.97;;;17.20;99.90;;;;;;5013672;28;20049;-72
2023/08/02 07:42:57;;;;;;;8.48;4.05;;;17.30;99.90;;;;;;5012759;28;20030;-72
2023/08/02 07:45:22;;;;;;;5.97;3.83;;;17.30;99.90;;;;;;5021602;28;20022;-71
2023/08/02 07:47:48;;;;;;;7.45;4.60;;;17.20;99.90;;;;;;5008034;28;20026;-71
2023/08/02 07:50:14;;;;;;;8.77;4.32;;;17.30;99.90;;;;;;5014031;28;20401;-72
2023/08/02 07:52:39;;;;;;;6.65;4.43;;;17.30;99.90;;;;;;4998016;28;20021;-72
2023/08/02 07:55:05;;;;;;;7.47;4.45;;;17.30;99.90;;;;;;5015819;28;20029;-71
2023/08/02 07:57:33;;;;;;;6.40;3.45;;;17.30;99.90;;;;;;5015709;28;20031;-73
2023/08/02 07:59:59;;;;;;;5.63;3.65;;;17.30;99.90;;;;;;5005608;28;20430;-72
2023/08/02 08:02:25;;;;;;;6.70;3.58;;;17.30;99.90;;;;;;5023504;28;20017;-72
2023/08/02 08:04:51;;;;;;;6.03;3.83;;;17.20;99.90;;;;;;4997245;28;20478;-72
2023/08/02 08:07:17;;;;;;;6.22;3.58;;;17.30;99.90;;;;;;5021135;28;20028;-72
2023/08/02 08:09:43;;;;;;;5.80;3.38;;;17.20;99.90;;;;;;5004065;28;20041;-71
2023/08/02 08:12:09;;;;;;;6.45;3.42;;;17.30;99.90;;;;;;5010628;28;20492;-73
2023/08/02 08:14:34;;;;;;;4.25;2.65;;;17.30;99.90;;;;;;5017073;28;20056;-73
2023/08/02 08:17:00;;;;;;;4.60;2.33;;;17.30;99.90;;;;;;5016471;28;20041;-72
2023/08/02 08:19:26;;;;;;;5.03;2.72;;;17.30;99.90;;;;;;4994050;28;20038;-72
2023/08/02 08:21:53;;;;;;;3.55;2.65;;;17.30;99.90;;;;;;5011360;28;20029;-72
2023/08/02 08:24:19;;;;;;;4.35;2.92;;;17.30;99.90;;;;;;5004936;28;20383;-72
2023/08/02 08:26:44;;;;;;;3.53;2.38;;;17.30;99.90;;;;;;5018669;28;20152;-72
2023/08/02 08:29:10;;;;;;;4.38;2.47;;;17.30;99.90;;;;;;5012287;28;20540;-72
2023/08/02 08:31:36;;;;;;;4.45;2.60;;;17.30;99.90;;;;;;5013396;28;20021;-71
2023/08/02 08:34:02;;;;;;;9.82;2.60;;;17.30;99.90;;;;;;5021468;28;20057;-72
2023/08/02 08:36:29;;;;;;;4.55;2.60;;;17.30;99.90;;;;;;5019251;28;20072;-72
2023/08/02 08:38:58;;;;;;;4.30;2.67;;;17.30;99.90;;;;;;5012217;28;20022;-73
2023/08/02 08:41:24;;;;;;;4.50;2.33;;;17.30;99.90;;;;;;5022411;28;20101;-72
2023/08/02 08:43:50;;;;;;;4.10;2.42;;;17.40;99.90;;;;;;5026589;28;20144;-72
2023/08/02 08:46:17;;;;;;;3.42;2.45;;;17.40;99.90;;;;;;5014740;28;20032;-71
2023/08/02 08:48:43;;;;;;;5.88;2.35;;;17.40;99.90;;;;;;5011921;28;20022;-72
2023/08/02 08:51:11;;;;;;;3.70;2.08;;;17.50;99.90;;;;;;5010703;28;20030;-71
2023/08/02 08:53:44;;;;;;;4.38;2.15;;;17.50;99.90;;;;;;4991361;28;20508;-72
2023/08/02 08:56:13;;;;;;;5.03;2.58;;;17.50;99.90;;;;;;5009965;28;20113;-71
2023/08/02 08:58:41;;;;;;;3.22;2.08;;;17.60;99.90;;;;;;4995892;28;20157;-72
2023/08/02 09:01:07;;;;;;;2.75;1.92;;;17.60;99.90;;;;;;5007912;28;20038;-72
2023/08/02 09:03:33;;;;;;;3.38;2.40;;;17.70;99.90;;;;;;5013386;28;20519;-71
2023/08/02 09:06:00;;;;;;;5.65;2.35;;;17.80;99.90;;;;;;5011942;28;20030;-71
2023/08/02 09:08:26;;;;;;;5.70;2.35;;;17.80;99.90;;;;;;5016329;28;20030;-71
2023/08/02 09:10:53;;;;;;;4.10;2.47;;;17.90;99.90;;;;;;5011295;28;20022;-71
2023/08/02 09:13:26;;;;;;;4.05;2.50;;;18.00;99.90;;;;;;5012136;28;20068;-72
2023/08/02 09:16:03;;;;;;;4.47;2.85;;;18.10;99.90;;;;;;5012856;28;20029;-72
2023/08/02 09:18:43;;;;;;;6.45;2.58;;;18.20;99.90;;;;;;4990011;28;20072;-71
2023/08/02 09:21:14;;;;;;;7.13;2.85;;;18.30;99.90;;;;;;4992849;28;20030;-72
2023/08/02 09:23:55;;;;;;;4.07;2.40;;;18.40;99.90;;;;;;5014608;28;20096;-72
2023/08/02 09:26:21;;;;;;;5.65;2.90;;;18.50;99.90;;;;;;5013404;28;20084;-72
2023/08/02 09:29:01;;;;;;;3.67;2.40;;;18.60;99.90;;;;;;5014370;28;20026;-72
2023/08/02 09:31:28;;;;;;;5.03;3.15;;;18.70;99.90;;;;;;5012747;28;20045;-72
2023/08/02 09:33:55;;;;;;;5.15;3.10;;;18.70;99.90;;;;;;5011109;28;20056;-71
2023/08/02 09:36:25;;;;;;;6.30;3.30;;;18.90;99.90;;;;;;5012407;28;20060;-71
2023/08/02 09:39:14;;;;;;;4.53;3.13;;;19.00;99.90;;;;;;5010901;28;20124;-72
2023/08/02 09:41:40;;;;;;;4.05;2.75;;;19.00;99.90;;;;;;4999936;28;20037;-71
2023/08/02 09:44:07;;;;;;;3.85;2.78;;;19.10;99.90;;;;;;5016805;28;20030;-72
2023/08/02 09:46:34;;;;;;;8.40;4.30;;;19.20;99.90;;;;;;5012787;28;20032;-72
2023/08/02 09:49:02;;;;;;;6.15;3.00;;;19.20;99.90;;;;;;5012453;28;20120;-71
2023/08/02 09:51:38;;;;;;;7.82;3.05;;;19.20;99.90;;;;;;5010624;28;20084;-71
2023/08/02 09:54:04;;;;;;;5.13;2.85;;;19.30;99.90;;;;;;5011641;28;20097;-71
2023/08/02 09:56:33;;;;;;;4.05;2.22;;;19.40;99.90;;;;;;5011723;28;20145;-71
2023/08/02 09:58:59;;;;;;;5.60;2.92;;;19.50;99.90;;;;;;5011947;28;20370;-72
2023/08/02 10:01:25;;;;;;;4.15;2.60;;;19.60;99.90;;;;;;5011973;28;20023;-70
2023/08/02 10:03:56;;;;;;;2.95;2.20;;;19.60;99.90;;;;;;5009761;28;20026;-69
2023/08/02 10:06:44;;;;;;;3.75;2.55;;;19.70;99.90;;;;;;4994870;28;20642;-70
2023/08/02 10:09:14;;;;;;;6.07;2.92;;;19.80;99.90;;;;;;5010781;28;20076;-70
2023/08/02 10:11:58;;;;;;;4.70;2.60;;;19.90;99.90;;;;;;5013503;28;20040;-71
2023/08/02 10:14:24;;;;;;;4.80;2.50;;;19.90;99.90;;;;;;5006511;28;20026;-72
2023/08/02 10:16:51;;;;;;;3.92;2.40;;;20.00;99.90;;;;;;5006154;28;20061;-72
2023/08/02 10:19:17;;;;;;;3.50;2.40;;;20.00;99.90;;;;;;5006171;28;20040;-72
2023/08/02 10:21:44;;;;;;;5.88;2.75;;;20.00;99.90;;;;;;5006270;28;20458;-71
2023/08/02 10:24:13;;;;;;;3.38;2.05;;;20.10;99.90;;;;;;5010267;28;20515;-72
2023/08/02 10:26:40;;;;;;;3.22;2.33;;;20.10;99.90;;;;;;5006511;28;20037;-71
2023/08/02 10:29:08;;;;;;;4.45;2.47;;;20.30;99.90;;;;;;5008380;28;20035;-72
2023/08/02 10:31:34;;;;;;;3.72;2.50;;;20.30;99.90;;;;;;5010252;28;20022;-72
2023/08/02 10:33:59;;;;;;;3.67;2.67;;;20.30;99.90;;;;;;4990377;28;20053;-72
2023/08/02 10:36:25;;;;;;;5.25;3.10;;;20.40;99.90;;;;;;5002176;28;20027;-72
2023/08/02 10:38:54;;;;;;;4.55;2.83;;;20.50;99.90;;;;;;5012189;28;20096;-72
2023/08/02 10:41:25;;;;;;;4.13;2.67;;;20.60;99.90;;;;;;5007278;28;20527;-72
2023/08/02 10:43:51;;;;;;;4.75;3.38;;;20.80;99.90;;;;;;5010693;28;21296;-72
2023/08/02 10:46:28;;;;;;;5.07;3.28;;;20.90;99.90;;;;;;5001911;28;20116;-75
2023/08/02 10:48:55;;;;;;;4.35;2.55;;;21.00;99.90;;;;;;4998723;28;20034;-74
2023/08/02 10:51:27;;;;;;;6.75;3.55;;;21.10;99.90;;;;;;5001356;28;20370;-73
2023/08/02 10:54:22;;;;;;;5.88;3.20;;;21.30;99.90;;;;;;5007470;28;20044;-71
2023/08/02 10:56:54;;;;;;;4.05;2.67;;;21.50;99.90;;;;;;4998886;28;20058;-73
2023/08/02 10:59:23;;;;;;;4.75;2.85;;;21.80;99.90;;;;;;5003372;28;20040;-71
2023/08/02 11:02:09;;;;;;;4.85;2.33;;;21.90;99.90;;;;;;4984391;28;20030;-72
2023/08/02 11:04:37;;;;;;;9.10;2.85;;;22.20;99.90;;;;;;4981348;28;20038;-74
2023/08/02 11:07:21;;;;;;;2.70;2.10;;;22.40;99.90;;;;;;4986251;28;20087;-74
2023/08/02 11:09:48;;;;;;;4.25;1.73;;;22.70;99.90;;;;;;4999157;28;20101;-74
2023/08/02 11:12:16;;;;;;;3.92;2.28;;;22.90;99.90;;;;;;5010661;28;20044;-73
2023/08/02 11:14:44;;;;;;;4.05;1.90;;;23.20;99.90;;;;;;5004323;28;20029;-73
2023/08/02 11:17:11;;;;;;;3.60;2.00;;;23.40;99.90;;;;;;5003710;28;20028;-74
2023/08/02 11:19:37;;;;;;;4.55;2.15;;;23.60;99.90;;;;;;5006610;28;20038;-73
2023/08/02 11:22:03;;;;;;;4.03;2.45;;;23.80;99.90;;;;;;5007700;28;20440;-73
2023/08/02 11:24:40;;;;;;;3.67;2.55;;;23.90;99.90;;;;;;5005801;28;20022;-73
2023/08/02 11:27:06;;;;;;;4.25;2.40;;;24.00;99.90;;;;;;5006833;28;20055;-73
2023/08/02 11:29:31;;;;;;;3.30;2.10;;;24.10;99.90;;;;;;5004669;28;20037;-74
2023/08/02 11:32:01;;;;;;;3.97;2.13;;;24.20;99.90;;;;;;5006771;28;20108;-73
2023/08/02 11:34:28;;;;;;;3.70;2.08;;;24.30;99.90;;;;;;5007048;28;20057;-73
2023/08/02 11:36:54;;;;;;;4.75;2.50;;;24.40;99.90;;;;;;5003153;28;20038;-73
2023/08/02 11:39:20;;;;;;;2.58;1.98;;;24.40;99.90;;;;;;5006061;28;20415;-73
2023/08/02 11:42:02;;;;;;;4.00;2.38;;;24.50;99.90;;;;;;5006489;28;20064;-73
2023/08/02 11:44:28;;;;;;;2.67;2.00;;;24.60;99.90;;;;;;5004339;28;20369;-73
2023/08/02 11:46:55;;;;;;;4.65;1.92;;;24.70;99.90;;;;;;5007421;28;20060;-74
2023/08/02 11:49:21;;;;;;;4.45;2.00;;;24.90;99.90;;;;;;4989975;28;20030;-73
2023/08/02 11:51:47;;;;;;;3.78;1.80;;;25.00;99.90;;;;;;5006346;28;20444;-74
2023/08/02 11:54:14;;;;;;;5.15;1.98;;;25.10;99.90;;;;;;5010619;28;20022;-73
2023/08/02 11:56:39;;;;;;;3.20;2.03;;;25.20;99.90;;;;;;5002291;28;20026;-73
2023/08/02 11:59:09;;;;;;;3.78;2.00;;;25.30;99.90;;;;;;5007103;28;20464;-74
2023/08/02 12:01:34;;;;;;;3.90;1.98;;;25.50;99.90;;;;;;5008815;28;20396;-73
2023/08/02 12:04:05;;;;;;;4.20;1.77;;;25.60;99.90;;;;;;5003201;28;20025;-72
2023/08/02 12:06:52;;;;;;;4.05;1.77;;;25.70;99.90;;;;;;5006032;28;21305;-72
2023/08/02 12:09:19;;;;;;;4.32;2.22;;;25.70;99.90;;;;;;5002247;28;20049;-73
2023/08/02 12:11:50;;;;;;;5.13;2.10;;;25.80;99.90;;;;;;5004163;28;20026;-73
2023/08/02 12:14:30;;;;;;;3.42;2.08;;;25.90;99.90;;;;;;5002908;28;20030;-73
2023/08/02 12:16:55;;;;;;;3.70;1.80;;;25.90;99.90;;;;;;5001520;28;20133;-74
2023/08/02 12:19:39;;;;;;;4.75;1.92;;;25.80;99.90;;;;;;4990868;28;20065;-73
2023/08/02 12:22:05;;;;;;;3.88;1.92;;;25.80;99.90;;;;;;5002200;28;20395;-73
2023/08/02 12:24:31;;;;;;;3.20;2.15;;;25.80;99.90;;;;;;5007335;28;20026;-73
2023/08/02 12:26:56;;;;;;;3.05;2.08;;;25.90;99.90;;;;;;5004029;28;20117;-74
2023/08/02 12:29:26;;;;;;;3.42;1.77;;;26.00;99.90;;;;;;4987430;28;20451;-73
2023/08/02 12:31:55;;;;;;;2.97;1.90;;;26.00;99.90;;;;;;5007640;28;20029;-72
2023/08/02 12:34:27;;;;;;;4.43;1.88;;;26.20;99.30;;;;;;5008768;28;20018;-73
2023/08/02 12:36:53;;;;;;;2.78;1.90;;;26.30;98.80;;;;;;5003138;28;20021;-73
2023/08/02 12:39:19;;;;;;;2.75;2.00;;;26.30;98.60;;;;;;5006433;28;20034;-72
2023/08/02 12:41:45;;;;;;;5.47;2.35;;;26.30;98.20;;;;;;4987953;28;20030;-74
2023/08/02 12:44:10;;;;;;;3.15;1.88;;;26.30;97.50;;;;;;5012631;28;20492;-75
2023/08/02 12:46:36;;;;;;;3.30;2.20;;;26.30;97.80;;;;;;4992666;28;20030;-74
2023/08/02 12:49:02;;;;;;;4.10;2.20;;;26.30;97.60;;;;;;4994064;28;20038;-75